sensor_id;sensor_type;location;lat;lon;timestamp;temperature;humidity
44431;DHT22;30135;47.866;-4.222;2023-02-15T00:02:17;11.00;98.40
44431;DHT22;30135;47.866;-4.222;2023-02-15T00:04:45;11.00;98.30
44431;DHT22;30135;47.866;-4.222;2023-02-15T00:07:15;11.00;98.30
44431;DHT22;30135;47.866;-4.222;2023-02-15T00:09:47;11.00;98.10
44431;DHT22;30135;47.866;-4.222;2023-02-15T00:12:15;10.90;98.10
44431;DHT22;30135;47.866;-4.222;2023-02-15T00:14:41;11.00;98.10
44431;DHT22;30135;47.866;-4.222;2023-02-15T00:17:07;10.90;98.00
44431;DHT22;30135;47.866;-4.222;2023-02-15T00:19:36;10.90;98.00
44431;DHT22;30135;47.866;-4.222;2023-02-15T00:22:02;10.90;97.90
44431;DHT22;30135;47.866;-4.222;2023-02-15T00:24:28;10.90;97.90
44431;DHT22;30135;47.866;-4.222;2023-02-15T00:26:54;10.90;97.80
44431;DHT22;30135;47.866;-4.222;2023-02-15T00:29:20;10.90;97.80
44431;DHT22;30135;47.866;-4.222;2023-02-15T00:31:46;10.80;97.80
44431;DHT22;30135;47.866;-4.222;2023-02-15T00:34:19;10.80;97.70
44431;DHT22;30135;47.866;-4.222;2023-02-15T00:36:46;10.80;97.70
44431;DHT22;30135;47.866;-4.222;2023-02-15T00:39:13;10.80;97.60
44431;DHT22;30135;47.866;-4.222;2023-02-15T00:41:39;10.80;97.60
44431;DHT22;30135;47.866;-4.222;2023-02-15T00:44:06;10.80;97.50
44431;DHT22;30135;47.866;-4.222;2023-02-15T00:46:32;10.80;97.60
44431;DHT22;30135;47.866;-4.222;2023-02-15T00:48:59;10.70;97.50
44431;DHT22;30135;47.866;-4.222;2023-02-15T00:51:25;10.70;97.50
44431;DHT22;30135;47.866;-4.222;2023-02-15T00:53:51;10.70;97.50
44431;DHT22;30135;47.866;-4.222;2023-02-15T00:56:17;10.70;97.40
44431;DHT22;30135;47.866;-4.222;2023-02-15T00:58:43;10.70;97.50
44431;DHT22;30135;47.866;-4.222;2023-02-15T01:01:14;10.60;97.40
44431;DHT22;30135;47.866;-4.222;2023-02-15T01:03:42;10.60;97.40
44431;DHT22;30135;47.866;-4.222;2023-02-15T01:06:09;10.60;97.50
44431;DHT22;30135;47.866;-4.222;2023-02-15T01:08:36;10.60;97.50
44431;DHT22;30135;47.866;-4.222;2023-02-15T01:11:07;10.60;97.50
44431;DHT22;30135;47.866;-4.222;2023-02-15T01:13:36;10.60;97.50
44431;DHT22;30135;47.866;-4.222;2023-02-15T01:16:03;10.60;97.50
44431;DHT22;30135;47.866;-4.222;2023-02-15T01:18:29;10.60;97.50
44431;DHT22;30135;47.866;-4.222;2023-02-15T01:20:55;10.60;97.60
44431;DHT22;30135;47.866;-4.222;2023-02-15T01:23:21;10.60;97.60
44431;DHT22;30135;47.866;-4.222;2023-02-15T01:25:48;10.60;97.60
44431;DHT22;30135;47.866;-4.222;2023-02-15T01:28:14;10.60;97.60
44431;DHT22;30135;47.866;-4.222;2023-02-15T01:30:40;10.60;97.60
44431;DHT22;30135;47.866;-4.222;2023-02-15T01:33:06;10.60;97.70
44431;DHT22;30135;47.866;-4.222;2023-02-15T01:35:36;10.60;97.70
44431;DHT22;30135;47.866;-4.222;2023-02-15T01:38:02;10.60;97.80
44431;DHT22;30135;47.866;-4.222;2023-02-15T01:40:28;10.60;97.80
44431;DHT22;30135;47.866;-4.222;2023-02-15T01:42:55;10.60;97.80
44431;DHT22;30135;47.866;-4.222;2023-02-15T01:45:30;10.60;97.80
44431;DHT22;30135;47.866;-4.222;2023-02-15T01:48:01;10.50;97.80
44431;DHT22;30135;47.866;-4.222;2023-02-15T01:50:44;10.50;97.80
44431;DHT22;30135;47.866;-4.222;2023-02-15T01:53:21;10.50;97.80
44431;DHT22;30135;47.866;-4.222;2023-02-15T01:58:29;10.50;97.80
44431;DHT22;30135;47.866;-4.222;2023-02-15T02:00:57;10.50;97.90
44431;DHT22;30135;47.866;-4.222;2023-02-15T02:06:45;10.50;98.00
44431;DHT22;30135;47.866;-4.222;2023-02-15T02:09:13;10.50;97.90
44431;DHT22;30135;47.866;-4.222;2023-02-15T02:11:40;10.50;97.90
44431;DHT22;30135;47.866;-4.222;2023-02-15T02:14:07;10.50;97.90
44431;DHT22;30135;47.866;-4.222;2023-02-15T02:16:54;10.50;97.90
44431;DHT22;30135;47.866;-4.222;2023-02-15T02:20:00;10.50;97.90
44431;DHT22;30135;47.866;-4.222;2023-02-15T02:25:30;10.50;97.90
44431;DHT22;30135;47.866;-4.222;2023-02-15T02:28:24;10.40;97.80
44431;DHT22;30135;47.866;-4.222;2023-02-15T02:31:29;10.40;97.80
44431;DHT22;30135;47.866;-4.222;2023-02-15T02:34:48;10.40;97.80
44431;DHT22;30135;47.866;-4.222;2023-02-15T02:37:49;10.40;97.70
44431;DHT22;30135;47.866;-4.222;2023-02-15T02:43:21;10.40;97.70
44431;DHT22;30135;47.866;-4.222;2023-02-15T02:46:00;10.40;97.70
44431;DHT22;30135;47.866;-4.222;2023-02-15T02:48:32;10.40;97.70
44431;DHT22;30135;47.866;-4.222;2023-02-15T02:50:59;10.30;97.70
44431;DHT22;30135;47.866;-4.222;2023-02-15T02:53:26;10.30;97.60
44431;DHT22;30135;47.866;-4.222;2023-02-15T02:59:12;10.30;97.60
44431;DHT22;30135;47.866;-4.222;2023-02-15T03:02:13;10.30;97.60
44431;DHT22;30135;47.866;-4.222;2023-02-15T03:04:47;10.30;97.60
44431;DHT22;30135;47.866;-4.222;2023-02-15T03:07:25;10.30;97.70
44431;DHT22;30135;47.866;-4.222;2023-02-15T03:09:55;10.20;97.70
44431;DHT22;30135;47.866;-4.222;2023-02-15T03:12:24;10.20;97.60
44431;DHT22;30135;47.866;-4.222;2023-02-15T03:15:21;10.20;97.60
44431;DHT22;30135;47.866;-4.222;2023-02-15T03:18:02;10.20;97.50
44431;DHT22;30135;47.866;-4.222;2023-02-15T03:20:32;10.20;97.50
44431;DHT22;30135;47.866;-4.222;2023-02-15T03:23:21;10.20;97.40
44431;DHT22;30135;47.866;-4.222;2023-02-15T03:25:52;10.10;97.30
44431;DHT22;30135;47.866;-4.222;2023-02-15T03:28:38;10.10;97.20
44431;DHT22;30135;47.866;-4.222;2023-02-15T03:31:10;10.10;97.20
44431;DHT22;30135;47.866;-4.222;2023-02-15T03:33:42;10.10;97.20
44431;DHT22;30135;47.866;-4.222;2023-02-15T03:39:22;10.00;97.00
44431;DHT22;30135;47.866;-4.222;2023-02-15T03:42:29;10.00;97.00
44431;DHT22;30135;47.866;-4.222;2023-02-15T03:45:04;9.90;96.90
44431;DHT22;30135;47.866;-4.222;2023-02-15T03:47:38;9.90;96.90
44431;DHT22;30135;47.866;-4.222;2023-02-15T03:50:20;9.90;97.00
44431;DHT22;30135;47.866;-4.222;2023-02-15T03:53:27;9.90;96.90
44431;DHT22;30135;47.866;-4.222;2023-02-15T03:55:54;9.90;96.90
44431;DHT22;30135;47.866;-4.222;2023-02-15T03:58:21;9.80;96.80
44431;DHT22;30135;47.866;-4.222;2023-02-15T04:01:18;9.80;96.80
44431;DHT22;30135;47.866;-4.222;2023-02-15T04:06:52;9.70;96.80
44431;DHT22;30135;47.866;-4.222;2023-02-15T04:09:21;9.70;96.80
44431;DHT22;30135;47.866;-4.222;2023-02-15T04:12:06;9.70;96.80
44431;DHT22;30135;47.866;-4.222;2023-02-15T04:14:32;9.70;96.80
44431;DHT22;30135;47.866;-4.222;2023-02-15T04:17:21;9.70;96.80
44431;DHT22;30135;47.866;-4.222;2023-02-15T04:19:47;9.60;96.80
44431;DHT22;30135;47.866;-4.222;2023-02-15T04:22:32;9.60;96.80
44431;DHT22;30135;47.866;-4.222;2023-02-15T04:25:16;9.60;96.80
44431;DHT22;30135;47.866;-4.222;2023-02-15T04:27:45;9.60;96.70
44431;DHT22;30135;47.866;-4.222;2023-02-15T04:30:14;9.60;96.70
44431;DHT22;30135;47.866;-4.222;2023-02-15T04:32:41;9.60;96.70
44431;DHT22;30135;47.866;-4.222;2023-02-15T04:35:08;9.60;96.80
44431;DHT22;30135;47.866;-4.222;2023-02-15T04:37:35;9.60;96.80
44431;DHT22;30135;47.866;-4.222;2023-02-15T04:40:01;9.60;96.80
44431;DHT22;30135;47.866;-4.222;2023-02-15T04:42:28;9.60;96.80
44431;DHT22;30135;47.866;-4.222;2023-02-15T04:44:54;9.50;96.70
44431;DHT22;30135;47.866;-4.222;2023-02-15T04:47:20;9.50;96.60
44431;DHT22;30135;47.866;-4.222;2023-02-15T04:49:46;9.50;96.50
44431;DHT22;30135;47.866;-4.222;2023-02-15T04:52:19;9.50;96.40
44431;DHT22;30135;47.866;-4.222;2023-02-15T04:54:45;9.50;96.40
44431;DHT22;30135;47.866;-4.222;2023-02-15T04:57:12;9.50;96.40
44431;DHT22;30135;47.866;-4.222;2023-02-15T04:59:38;9.40;96.40
44431;DHT22;30135;47.866;-4.222;2023-02-15T05:02:04;9.40;96.40
44431;DHT22;30135;47.866;-4.222;2023-02-15T05:04:30;9.40;96.40
44431;DHT22;30135;47.866;-4.222;2023-02-15T05:06:56;9.40;96.70
44431;DHT22;30135;47.866;-4.222;2023-02-15T05:09:22;9.40;96.40
44431;DHT22;30135;47.866;-4.222;2023-02-15T05:11:48;9.30;96.40
44431;DHT22;30135;47.866;-4.222;2023-02-15T05:14:14;9.40;96.40
44431;DHT22;30135;47.866;-4.222;2023-02-15T05:16:40;9.30;96.30
44431;DHT22;30135;47.866;-4.222;2023-02-15T05:19:06;9.30;96.20
44431;DHT22;30135;47.866;-4.222;2023-02-15T05:21:33;9.30;96.20
44431;DHT22;30135;47.866;-4.222;2023-02-15T05:23:59;9.30;96.20
44431;DHT22;30135;47.866;-4.222;2023-02-15T05:26:25;9.20;96.10
44431;DHT22;30135;47.866;-4.222;2023-02-15T05:29:10;9.20;96.10
44431;DHT22;30135;47.866;-4.222;2023-02-15T05:31:37;9.20;96.10
44431;DHT22;30135;47.866;-4.222;2023-02-15T05:34:04;9.20;96.00
44431;DHT22;30135;47.866;-4.222;2023-02-15T05:36:30;9.10;96.00
44431;DHT22;30135;47.866;-4.222;2023-02-15T05:38:56;9.10;96.00
44431;DHT22;30135;47.866;-4.222;2023-02-15T05:41:22;9.10;95.90
44431;DHT22;30135;47.866;-4.222;2023-02-15T05:43:48;9.10;95.90
44431;DHT22;30135;47.866;-4.222;2023-02-15T05:46:14;9.00;95.90
44431;DHT22;30135;47.866;-4.222;2023-02-15T05:48:40;9.00;95.90
44431;DHT22;30135;47.866;-4.222;2023-02-15T05:51:11;9.00;95.80
44431;DHT22;30135;47.866;-4.222;2023-02-15T05:53:42;9.00;95.70
44431;DHT22;30135;47.866;-4.222;2023-02-15T05:56:09;9.00;95.70
44431;DHT22;30135;47.866;-4.222;2023-02-15T05:58:38;8.90;95.60
44431;DHT22;30135;47.866;-4.222;2023-02-15T06:01:12;8.90;95.50
44431;DHT22;30135;47.866;-4.222;2023-02-15T06:03:40;8.80;95.40
44431;DHT22;30135;47.866;-4.222;2023-02-15T06:06:07;8.80;95.30
44431;DHT22;30135;47.866;-4.222;2023-02-15T06:08:34;8.80;95.30
44431;DHT22;30135;47.866;-4.222;2023-02-15T06:11:01;8.70;95.30
44431;DHT22;30135;47.866;-4.222;2023-02-15T06:13:28;8.70;95.30
44431;DHT22;30135;47.866;-4.222;2023-02-15T06:15:54;8.70;95.30
44431;DHT22;30135;47.866;-4.222;2023-02-15T06:18:20;8.60;95.20
44431;DHT22;30135;47.866;-4.222;2023-02-15T06:20:47;8.60;95.20
44431;DHT22;30135;47.866;-4.222;2023-02-15T06:23:13;8.60;95.10
44431;DHT22;30135;47.866;-4.222;2023-02-15T06:25:39;8.60;95.10
44431;DHT22;30135;47.866;-4.222;2023-02-15T06:28:05;8.50;95.00
44431;DHT22;30135;47.866;-4.222;2023-02-15T06:30:32;8.50;94.90
44431;DHT22;30135;47.866;-4.222;2023-02-15T06:32:58;8.40;94.90
44431;DHT22;30135;47.866;-4.222;2023-02-15T06:35:24;8.40;94.90
44431;DHT22;30135;47.866;-4.222;2023-02-15T06:37:50;8.40;94.90
44431;DHT22;30135;47.866;-4.222;2023-02-15T06:40:16;8.40;94.90
44431;DHT22;30135;47.866;-4.222;2023-02-15T06:42:42;8.40;95.00
44431;DHT22;30135;47.866;-4.222;2023-02-15T06:45:09;8.30;94.90
44431;DHT22;30135;47.866;-4.222;2023-02-15T06:47:36;8.30;94.90
44431;DHT22;30135;47.866;-4.222;2023-02-15T06:50:05;8.30;94.90
44431;DHT22;30135;47.866;-4.222;2023-02-15T06:52:32;8.30;94.90
44431;DHT22;30135;47.866;-4.222;2023-02-15T06:54:58;8.30;94.90
44431;DHT22;30135;47.866;-4.222;2023-02-15T06:57:24;8.20;94.80
44431;DHT22;30135;47.866;-4.222;2023-02-15T06:59:50;8.20;94.70
44431;DHT22;30135;47.866;-4.222;2023-02-15T07:02:17;8.20;94.70
44431;DHT22;30135;47.866;-4.222;2023-02-15T07:04:43;8.20;94.70
44431;DHT22;30135;47.866;-4.222;2023-02-15T07:07:10;8.10;94.70
44431;DHT22;30135;47.866;-4.222;2023-02-15T07:09:37;8.10;94.70
44431;DHT22;30135;47.866;-4.222;2023-02-15T07:12:04;8.10;94.80
44431;DHT22;30135;47.866;-4.222;2023-02-15T07:14:49;8.10;94.80
44431;DHT22;30135;47.866;-4.222;2023-02-15T07:17:15;8.10;94.70
44431;DHT22;30135;47.866;-4.222;2023-02-15T07:19:43;8.10;94.60
44431;DHT22;30135;47.866;-4.222;2023-02-15T07:22:09;8.00;94.50
44431;DHT22;30135;47.866;-4.222;2023-02-15T07:24:35;8.00;94.40
44431;DHT22;30135;47.866;-4.222;2023-02-15T07:27:01;7.90;94.40
44431;DHT22;30135;47.866;-4.222;2023-02-15T07:29:26;7.90;94.30
44431;DHT22;30135;47.866;-4.222;2023-02-15T07:31:52;7.90;94.30
44431;DHT22;30135;47.866;-4.222;2023-02-15T07:34:20;7.90;94.20
44431;DHT22;30135;47.866;-4.222;2023-02-15T07:36:46;7.80;94.20
44431;DHT22;30135;47.866;-4.222;2023-02-15T07:39:12;7.80;94.20
44431;DHT22;30135;47.866;-4.222;2023-02-15T07:41:38;7.80;94.20
44431;DHT22;30135;47.866;-4.222;2023-02-15T07:44:04;7.80;94.30
44431;DHT22;30135;47.866;-4.222;2023-02-15T07:46:30;7.70;94.20
44431;DHT22;30135;47.866;-4.222;2023-02-15T07:48:56;7.70;94.20
44431;DHT22;30135;47.866;-4.222;2023-02-15T07:51:22;7.70;94.20
44431;DHT22;30135;47.866;-4.222;2023-02-15T07:53:48;7.70;94.20
44431;DHT22;30135;47.866;-4.222;2023-02-15T07:56:14;7.70;94.20
44431;DHT22;30135;47.866;-4.222;2023-02-15T07:58:41;7.70;94.20
44431;DHT22;30135;47.866;-4.222;2023-02-15T08:01:23;7.70;94.30
44431;DHT22;30135;47.866;-4.222;2023-02-15T08:03:51;7.70;94.70
44431;DHT22;30135;47.866;-4.222;2023-02-15T08:06:19;7.70;94.50
44431;DHT22;30135;47.866;-4.222;2023-02-15T08:08:45;7.70;94.50
44431;DHT22;30135;47.866;-4.222;2023-02-15T08:16:45;7.70;94.70
44431;DHT22;30135;47.866;-4.222;2023-02-15T08:21:55;7.80;94.90
44431;DHT22;30135;47.866;-4.222;2023-02-15T08:24:29;7.80;95.00
44431;DHT22;30135;47.866;-4.222;2023-02-15T08:26:57;7.80;95.00
44431;DHT22;30135;47.866;-4.222;2023-02-15T08:29:28;7.80;95.10
44431;DHT22;30135;47.866;-4.222;2023-02-15T08:31:57;7.80;95.10
44431;DHT22;30135;47.866;-4.222;2023-02-15T08:34:39;7.80;95.20
44431;DHT22;30135;47.866;-4.222;2023-02-15T08:37:06;7.90;95.30
44431;DHT22;30135;47.866;-4.222;2023-02-15T08:39:32;7.90;95.30
44431;DHT22;30135;47.866;-4.222;2023-02-15T08:41:58;7.90;95.40
44431;DHT22;30135;47.866;-4.222;2023-02-15T08:44:24;7.90;95.40
44431;DHT22;30135;47.866;-4.222;2023-02-15T08:46:50;7.90;95.40
44431;DHT22;30135;47.866;-4.222;2023-02-15T08:49:19;7.90;95.50
44431;DHT22;30135;47.866;-4.222;2023-02-15T08:51:47;7.90;95.50
44431;DHT22;30135;47.866;-4.222;2023-02-15T08:54:18;8.00;95.60
44431;DHT22;30135;47.866;-4.222;2023-02-15T08:56:45;8.00;95.70
44431;DHT22;30135;47.866;-4.222;2023-02-15T08:59:14;8.00;95.70
44431;DHT22;30135;47.866;-4.222;2023-02-15T09:01:42;8.10;95.80
44431;DHT22;30135;47.866;-4.222;2023-02-15T09:04:09;8.10;95.90
44431;DHT22;30135;47.866;-4.222;2023-02-15T09:06:37;8.10;95.90
44431;DHT22;30135;47.866;-4.222;2023-02-15T09:09:04;8.10;96.00
44431;DHT22;30135;47.866;-4.222;2023-02-15T09:11:36;8.20;96.00
44431;DHT22;30135;47.866;-4.222;2023-02-15T09:14:12;8.20;96.10
44431;DHT22;30135;47.866;-4.222;2023-02-15T09:16:44;8.20;96.20
44431;DHT22;30135;47.866;-4.222;2023-02-15T09:19:16;8.30;96.30
44431;DHT22;30135;47.866;-4.222;2023-02-15T09:21:43;8.30;96.30
44431;DHT22;30135;47.866;-4.222;2023-02-15T09:24:11;8.30;96.30
44431;DHT22;30135;47.866;-4.222;2023-02-15T09:26:41;8.40;96.50
44431;DHT22;30135;47.866;-4.222;2023-02-15T09:29:10;8.40;96.60
44431;DHT22;30135;47.866;-4.222;2023-02-15T09:31:41;8.50;96.60
44431;DHT22;30135;47.866;-4.222;2023-02-15T09:34:11;8.50;96.80
44431;DHT22;30135;47.866;-4.222;2023-02-15T09:59:01;9.10;97.90
44431;DHT22;30135;47.866;-4.222;2023-02-15T10:02:16;9.10;98.00
44431;DHT22;30135;47.866;-4.222;2023-02-15T10:05:01;9.20;98.20
44431;DHT22;30135;47.866;-4.222;2023-02-15T10:13:43;9.40;98.20
44431;DHT22;30135;47.866;-4.222;2023-02-15T10:19:37;9.60;98.30
44431;DHT22;30135;47.866;-4.222;2023-02-15T10:28:45;9.70;98.40
44431;DHT22;30135;47.866;-4.222;2023-02-15T10:37:09;9.90;98.30
44431;DHT22;30135;47.866;-4.222;2023-02-15T10:45:49;10.00;98.30
44431;DHT22;30135;47.866;-4.222;2023-02-15T10:51:10;10.10;98.10
44431;DHT22;30135;47.866;-4.222;2023-02-15T10:57:11;10.20;98.20
44431;DHT22;30135;47.866;-4.222;2023-02-15T10:59:57;10.20;98.10
44431;DHT22;30135;47.866;-4.222;2023-02-15T11:03:02;10.20;98.10
44431;DHT22;30135;47.866;-4.222;2023-02-15T11:08:24;10.30;98.10
44431;DHT22;30135;47.866;-4.222;2023-02-15T11:10:59;10.30;98.10
44431;DHT22;30135;47.866;-4.222;2023-02-15T11:13:34;10.30;98.20
44431;DHT22;30135;47.866;-4.222;2023-02-15T11:16:09;10.40;98.20
44431;DHT22;30135;47.866;-4.222;2023-02-15T11:19:11;10.50;98.20
44431;DHT22;30135;47.866;-4.222;2023-02-15T11:21:44;10.40;98.10
44431;DHT22;30135;47.866;-4.222;2023-02-15T11:24:16;10.50;98.00
44431;DHT22;30135;47.866;-4.222;2023-02-15T11:27:02;10.50;97.90
44431;DHT22;30135;47.866;-4.222;2023-02-15T11:32:39;10.50;97.90
44431;DHT22;30135;47.866;-4.222;2023-02-15T11:37:57;10.70;98.10
44431;DHT22;30135;47.866;-4.222;2023-02-15T11:40:54;10.70;98.00
44431;DHT22;30135;47.866;-4.222;2023-02-15T11:43:31;10.80;97.90
44431;DHT22;30135;47.866;-4.222;2023-02-15T11:46:01;10.80;97.90
44431;DHT22;30135;47.866;-4.222;2023-02-15T11:48:30;10.80;97.80
44431;DHT22;30135;47.866;-4.222;2023-02-15T11:50:57;10.80;97.90
44431;DHT22;30135;47.866;-4.222;2023-02-15T11:53:25;10.80;97.80
44431;DHT22;30135;47.866;-4.222;2023-02-15T11:55:54;10.90;97.80
44431;DHT22;30135;47.866;-4.222;2023-02-15T12:00:59;11.00;97.90
44431;DHT22;30135;47.866;-4.222;2023-02-15T12:03:50;11.00;97.80
44431;DHT22;30135;47.866;-4.222;2023-02-15T12:06:26;11.00;97.80
44431;DHT22;30135;47.866;-4.222;2023-02-15T12:09:07;11.10;97.80
44431;DHT22;30135;47.866;-4.222;2023-02-15T12:11:51;11.10;97.80
44431;DHT22;30135;47.866;-4.222;2023-02-15T12:14:17;11.10;97.90
44431;DHT22;30135;47.866;-4.222;2023-02-15T12:16:49;11.20;98.00
44431;DHT22;30135;47.866;-4.222;2023-02-15T12:19:24;11.20;98.00
44431;DHT22;30135;47.866;-4.222;2023-02-15T12:21:54;11.30;97.90
44431;DHT22;30135;47.866;-4.222;2023-02-15T12:24:34;11.30;97.90
44431;DHT22;30135;47.866;-4.222;2023-02-15T12:27:24;11.30;98.00
44431;DHT22;30135;47.866;-4.222;2023-02-15T12:30:04;11.40;98.00
44431;DHT22;30135;47.866;-4.222;2023-02-15T12:32:57;11.40;98.00
44431;DHT22;30135;47.866;-4.222;2023-02-15T12:35:33;11.40;98.00
44431;DHT22;30135;47.866;-4.222;2023-02-15T12:38:23;11.40;98.00
44431;DHT22;30135;47.866;-4.222;2023-02-15T12:41:03;11.40;98.10
44431;DHT22;30135;47.866;-4.222;2023-02-15T12:44:20;11.50;98.10
44431;DHT22;30135;47.866;-4.222;2023-02-15T12:46:58;11.50;98.20
44431;DHT22;30135;47.866;-4.222;2023-02-15T12:49:35;11.60;98.30
44431;DHT22;30135;47.866;-4.222;2023-02-15T12:52:21;11.60;98.30
44431;DHT22;30135;47.866;-4.222;2023-02-15T12:54:50;11.60;98.30
44431;DHT22;30135;47.866;-4.222;2023-02-15T12:57:29;11.70;98.50
44431;DHT22;30135;47.866;-4.222;2023-02-15T13:02:53;11.80;98.80
44431;DHT22;30135;47.866;-4.222;2023-02-15T13:05:36;11.90;99.10
44431;DHT22;30135;47.866;-4.222;2023-02-15T13:11:07;12.00;98.90
44431;DHT22;30135;47.866;-4.222;2023-02-15T13:16:46;12.10;99.40
44431;DHT22;30135;47.866;-4.222;2023-02-15T13:19:18;12.10;99.30
44431;DHT22;30135;47.866;-4.222;2023-02-15T13:21:50;12.20;99.40
44431;DHT22;30135;47.866;-4.222;2023-02-15T13:24:36;12.20;99.60
44431;DHT22;30135;47.866;-4.222;2023-02-15T13:27:39;12.30;99.90
44431;DHT22;30135;47.866;-4.222;2023-02-15T13:30:35;12.30;99.50
44431;DHT22;30135;47.866;-4.222;2023-02-15T13:41:39;12.40;99.90
44431;DHT22;30135;47.866;-4.222;2023-02-15T13:50:35;12.50;99.90
44431;DHT22;30135;47.866;-4.222;2023-02-15T13:56:36;12.60;99.90
44431;DHT22;30135;47.866;-4.222;2023-02-15T14:18:39;12.80;99.90
44431;DHT22;30135;47.866;-4.222;2023-02-15T14:26:35;12.80;99.90
44431;DHT22;30135;47.866;-4.222;2023-02-15T14:29:38;12.90;99.90
44431;DHT22;30135;47.866;-4.222;2023-02-15T14:32:27;12.90;99.90
44431;DHT22;30135;47.866;-4.222;2023-02-15T14:35:00;12.90;99.90
44431;DHT22;30135;47.866;-4.222;2023-02-15T14:46:19;13.00;99.90
44431;DHT22;30135;47.866;-4.222;2023-02-15T15:05:13;13.30;99.90
44431;DHT22;30135;47.866;-4.222;2023-02-15T15:07:52;13.30;99.90
44431;DHT22;30135;47.866;-4.222;2023-02-15T15:12:50;13.30;99.90
44431;DHT22;30135;47.866;-4.222;2023-02-15T15:18:06;13.30;99.90
44431;DHT22;30135;47.866;-4.222;2023-02-15T15:20:46;13.40;99.90
44431;DHT22;30135;47.866;-4.222;2023-02-15T15:48:44;13.60;99.00
44431;DHT22;30135;47.866;-4.222;2023-02-15T15:51:18;13.60;99.20
44431;DHT22;30135;47.866;-4.222;2023-02-15T15:53:49;13.60;99.10
44431;DHT22;30135;47.866;-4.222;2023-02-15T15:56:24;13.60;99.20
44431;DHT22;30135;47.866;-4.222;2023-02-15T15:59:05;13.60;99.10
44431;DHT22;30135;47.866;-4.222;2023-02-15T16:01:40;13.60;99.00
44431;DHT22;30135;47.866;-4.222;2023-02-15T16:04:13;13.60;98.90
44431;DHT22;30135;47.866;-4.222;2023-02-15T16:06:48;13.60;98.80
44431;DHT22;30135;47.866;-4.222;2023-02-15T16:09:23;13.60;98.70
44431;DHT22;30135;47.866;-4.222;2023-02-15T16:11:56;13.60;98.50
44431;DHT22;30135;47.866;-4.222;2023-02-15T16:17:00;13.60;98.40
44431;DHT22;30135;47.866;-4.222;2023-02-15T16:19:32;13.50;98.20
44431;DHT22;30135;47.866;-4.222;2023-02-15T16:22:00;13.50;98.10
44431;DHT22;30135;47.866;-4.222;2023-02-15T16:27:39;13.50;97.60
44431;DHT22;30135;47.866;-4.222;2023-02-15T16:33:12;13.50;97.60
44431;DHT22;30135;47.866;-4.222;2023-02-15T16:35:59;13.50;97.50
44431;DHT22;30135;47.866;-4.222;2023-02-15T16:41:12;13.50;97.50
44431;DHT22;30135;47.866;-4.222;2023-02-15T16:43:40;13.50;97.60
44431;DHT22;30135;47.866;-4.222;2023-02-15T16:46:59;13.50;97.50
44431;DHT22;30135;47.866;-4.222;2023-02-15T16:49:18;13.40;97.50
44431;DHT22;30135;47.866;-4.222;2023-02-15T16:52:04;13.40;97.40
44431;DHT22;30135;47.866;-4.222;2023-02-15T16:54:32;13.40;97.40
44431;DHT22;30135;47.866;-4.222;2023-02-15T16:56:59;13.40;97.50
44431;DHT22;30135;47.866;-4.222;2023-02-15T16:59:35;13.40;97.50
44431;DHT22;30135;47.866;-4.222;2023-02-15T17:02:18;13.40;97.50
44431;DHT22;30135;47.866;-4.222;2023-02-15T17:07:48;13.40;97.50
44431;DHT22;30135;47.866;-4.222;2023-02-15T17:10:39;13.30;97.50
44431;DHT22;30135;47.866;-4.222;2023-02-15T17:18:32;13.30;97.70
44431;DHT22;30135;47.866;-4.222;2023-02-15T17:21:08;13.30;98.00
44431;DHT22;30135;47.866;-4.222;2023-02-15T17:23:46;13.30;97.80
44431;DHT22;30135;47.866;-4.222;2023-02-15T17:26:23;13.30;97.80
44431;DHT22;30135;47.866;-4.222;2023-02-15T17:28:55;13.30;98.20
44431;DHT22;30135;47.866;-4.222;2023-02-15T17:31:26;13.30;98.00
44431;DHT22;30135;47.866;-4.222;2023-02-15T17:33:58;13.30;98.10
44431;DHT22;30135;47.866;-4.222;2023-02-15T17:36:27;13.30;98.10
44431;DHT22;30135;47.866;-4.222;2023-02-15T17:41:29;13.20;98.20
44431;DHT22;30135;47.866;-4.222;2023-02-15T17:43:57;13.20;98.20
44431;DHT22;30135;47.866;-4.222;2023-02-15T17:46:24;13.20;98.30
44431;DHT22;30135;47.866;-4.222;2023-02-15T17:48:52;13.20;98.30
44431;DHT22;30135;47.866;-4.222;2023-02-15T17:51:21;13.20;98.30
44431;DHT22;30135;47.866;-4.222;2023-02-15T17:53:47;13.20;98.40
44431;DHT22;30135;47.866;-4.222;2023-02-15T17:56:33;13.20;98.50
44431;DHT22;30135;47.866;-4.222;2023-02-15T17:58:59;13.20;98.60
44431;DHT22;30135;47.866;-4.222;2023-02-15T18:01:25;13.20;98.70
44431;DHT22;30135;47.866;-4.222;2023-02-15T18:04:13;13.10;98.70
44431;DHT22;30135;47.866;-4.222;2023-02-15T18:06:59;13.10;98.70
44431;DHT22;30135;47.866;-4.222;2023-02-15T18:09:44;13.10;98.80
44431;DHT22;30135;47.866;-4.222;2023-02-15T18:12:33;13.10;98.80
44431;DHT22;30135;47.866;-4.222;2023-02-15T18:15:05;13.10;98.90
44431;DHT22;30135;47.866;-4.222;2023-02-15T18:17:38;13.10;98.90
44431;DHT22;30135;47.866;-4.222;2023-02-15T18:20:30;13.10;99.00
44431;DHT22;30135;47.866;-4.222;2023-02-15T18:23:01;13.00;98.80
44431;DHT22;30135;47.866;-4.222;2023-02-15T18:25:27;13.00;98.80
44431;DHT22;30135;47.866;-4.222;2023-02-15T18:27:54;12.90;98.70
44431;DHT22;30135;47.866;-4.222;2023-02-15T18:30:22;12.90;98.70
44431;DHT22;30135;47.866;-4.222;2023-02-15T18:32:51;12.90;98.80
44431;DHT22;30135;47.866;-4.222;2023-02-15T18:35:21;12.90;98.80
44431;DHT22;30135;47.866;-4.222;2023-02-15T18:37:48;12.80;98.80
44431;DHT22;30135;47.866;-4.222;2023-02-15T18:40:17;12.70;99.30
44431;DHT22;30135;47.866;-4.222;2023-02-15T18:42:45;12.70;98.90
44431;DHT22;30135;47.866;-4.222;2023-02-15T18:47:45;12.60;99.00
44431;DHT22;30135;47.866;-4.222;2023-02-15T18:50:13;12.60;99.10
44431;DHT22;30135;47.866;-4.222;2023-02-15T18:52:40;12.60;99.20
44431;DHT22;30135;47.866;-4.222;2023-02-15T18:55:21;12.60;99.30
44431;DHT22;30135;47.866;-4.222;2023-02-15T18:57:52;12.60;99.40
44431;DHT22;30135;47.866;-4.222;2023-02-15T19:00:24;12.60;99.40
44431;DHT22;30135;47.866;-4.222;2023-02-15T19:02:53;12.50;99.40
44431;DHT22;30135;47.866;-4.222;2023-02-15T19:05:20;12.60;99.50
44431;DHT22;30135;47.866;-4.222;2023-02-15T19:07:47;12.60;99.50
44431;DHT22;30135;47.866;-4.222;2023-02-15T19:10:25;12.50;99.60
44431;DHT22;30135;47.866;-4.222;2023-02-15T19:12:54;12.50;99.60
44431;DHT22;30135;47.866;-4.222;2023-02-15T19:15:23;12.50;99.70
44431;DHT22;30135;47.866;-4.222;2023-02-15T19:17:50;12.50;99.80
44431;DHT22;30135;47.866;-4.222;2023-02-15T19:20:20;12.50;99.80
44431;DHT22;30135;47.866;-4.222;2023-02-15T19:22:49;12.50;99.90
44431;DHT22;30135;47.866;-4.222;2023-02-15T19:25:27;12.50;99.90
44431;DHT22;30135;47.866;-4.222;2023-02-15T19:27:55;12.50;99.90
44431;DHT22;30135;47.866;-4.222;2023-02-15T19:30:25;12.40;99.90
44431;DHT22;30135;47.866;-4.222;2023-02-15T19:32:54;12.40;99.90
44431;DHT22;30135;47.866;-4.222;2023-02-15T19:35:23;12.40;99.90
44431;DHT22;30135;47.866;-4.222;2023-02-15T19:37:53;12.40;99.90
44431;DHT22;30135;47.866;-4.222;2023-02-15T19:40:29;12.40;99.90
44431;DHT22;30135;47.866;-4.222;2023-02-15T19:42:57;12.40;99.90
44431;DHT22;30135;47.866;-4.222;2023-02-15T19:45:25;12.40;99.90
44431;DHT22;30135;47.866;-4.222;2023-02-15T19:47:54;12.40;99.90